Time;durP1;ratioP1;P1;durP2;ratioP2;P2;SDS_P1;SDS_P2;PMS_P1;PMS_P2;Temp;Humidity;BMP_temperature;BMP_pressure;BME280_temperature;BME280_humidity;BME280_pressure;Samples;Min_cycle;Max_cycle;Signal;HPM_P1;HPM_P2
2022/06/13 00:00:44;;;;;;;;;1.00;1.00;;;;;18.42;80.81;101175.13;6333356;22;56705;-93
2022/06/13 00:03:09;;;;;;;;;2.00;1.33;;;;;18.40;81.11;101180.41;6333475;22;52164;-93
2022/06/13 00:05:35;;;;;;;;;3.00;1.67;;;;;18.34;81.55;101176.75;6308318;22;49306;-92
2022/06/13 00:08:01;;;;;;;;;2.67;1.00;;;;;18.30;81.50;101144.78;6336534;22;45250;-92
2022/06/13 00:10:26;;;;;;;;;1.33;0.67;;;;;18.28;81.87;101141.22;6308527;22;45334;-91
2022/06/13 00:12:52;;;;;;;;;1.00;1.00;;;;;18.25;82.14;101127.84;6309164;22;45235;-95
2022/06/13 00:15:17;;;;;;;;;1.00;1.00;;;;;18.23;82.56;101118.06;6335070;22;45391;-94
2022/06/13 00:17:43;;;;;;;;;3.00;0.67;;;;;18.18;82.66;101102.00;6334261;22;45504;-95
2022/06/13 00:20:09;;;;;;;;;2.00;0.00;;;;;18.16;83.21;101083.38;6361186;22;45281;-94
2022/06/13 00:22:35;;;;;;;;;1.67;1.67;;;;;18.11;83.33;101063.81;6341156;22;45349;-94
2022/06/13 00:25:00;;;;;;;;;1.00;1.00;;;;;18.09;82.91;101070.88;6337367;22;45508;-95
2022/06/13 00:27:26;;;;;;;;;1.33;1.33;;;;;18.04;83.71;101065.44;6332376;22;45585;-94
2022/06/13 00:29:51;;;;;;;;;1.00;1.00;;;;;18.01;83.83;101044.16;6335052;22;45298;-94
2022/06/13 00:32:17;;;;;;;;;1.00;1.00;;;;;17.99;84.02;101035.22;6306363;22;45507;-93
2022/06/13 00:34:43;;;;;;;;;1.00;1.00;;;;;17.95;84.46;101020.13;6358544;22;47188;-94
2022/06/13 00:37:09;;;;;;;;;3.00;1.00;;;;;17.93;84.50;101008.59;6359049;22;45299;-93
2022/06/13 00:39:34;;;;;;;;;3.00;2.00;;;;;17.86;84.76;100997.81;6332933;22;45150;-94
2022/06/13 00:41:59;;;;;;;;;2.00;1.00;;;;;17.83;84.91;100992.44;6332465;22;45287;-94
2022/06/13 00:57:25;;;;;;;;;3.33;1.33;;;;;17.58;86.26;100935.34;6295005;22;1324804;-92
2022/06/13 00:59:54;;;;;;;;;1.67;1.00;;;;;17.59;86.32;100946.00;6334617;22;45316;-91
2022/06/13 01:02:21;;;;;;;;;3.00;1.67;;;;;17.52;86.66;100925.53;6314838;22;45170;-93
2022/06/13 01:04:48;;;;;;;;;3.00;2.00;;;;;17.52;86.85;100929.03;6298193;22;45265;-95
2022/06/13 01:07:14;;;;;;;;;1.00;1.00;;;;;17.49;87.04;100929.00;6296216;22;44734;-91
2022/06/13 01:12:25;;;;;;;;;2.00;1.67;;;;;17.48;87.88;100911.28;6307173;22;45357;-94
2022/06/13 01:30:51;;;;;;;;;4.33;2.67;;;;;17.19;89.39;100872.72;6281346;22;45658;-95
2022/06/13 01:41:04;;;;;;;;;1.00;1.00;;;;;17.14;89.89;100874.34;6350980;22;44808;-96
2022/06/13 01:43:45;;;;;;;;;1.00;1.00;;;;;17.12;90.46;100861.91;6336201;22;45929;-95
2022/06/13 01:46:29;;;;;;;;;4.00;2.33;;;;;17.10;90.97;100856.59;6314975;22;47178;-96
2022/06/13 01:48:55;;;;;;;;;3.00;3.00;;;;;17.06;91.43;100865.34;6330052;22;45171;-94
2022/06/13 01:59:31;;;;;;;;;2.67;2.67;;;;;16.97;92.73;100829.84;6315205;22;45246;-95
2022/06/13 02:04:40;;;;;;;;;2.67;2.67;;;;;16.83;93.05;100799.47;6317388;22;45838;-95
2022/06/13 02:07:15;;;;;;;;;2.00;2.00;;;;;16.85;93.28;100805.72;6317997;22;45352;-94
2022/06/13 02:10:00;;;;;;;;;3.00;2.00;;;;;16.92;93.38;100825.28;6331881;22;45348;-95
2022/06/13 02:12:30;;;;;;;;;3.33;2.33;;;;;16.85;94.00;100818.97;6307263;22;45408;-95
2022/06/13 02:15:25;;;;;;;;;2.33;2.33;;;;;16.85;94.32;100811.03;6306254;22;45541;-95
2022/06/13 02:18:00;;;;;;;;;4.33;2.00;;;;;16.80;94.72;100810.03;6304048;22;47429;-94
2022/06/13 02:20:34;;;;;;;;;2.00;1.33;;;;;16.77;95.07;100800.28;6334836;22;45358;-95
2022/06/13 02:23:06;;;;;;;;;3.00;3.00;;;;;16.80;95.06;100794.13;6306844;22;45653;-95
2022/06/13 02:25:43;;;;;;;;;4.00;4.00;;;;;16.77;95.49;100791.41;6335777;22;45291;-95
2022/06/13 02:28:18;;;;;;;;;3.00;2.33;;;;;16.74;95.46;100792.25;6306681;22;47143;-94
2022/06/13 02:31:01;;;;;;;;;5.33;3.33;;;;;16.73;95.53;100793.09;6338419;22;45282;-96
2022/06/13 02:34:00;;;;;;;;;2.33;2.33;;;;;16.73;96.00;100785.16;6338455;22;45308;-94
2022/06/13 02:36:40;;;;;;;;;3.00;3.00;;;;;16.70;96.10;100787.75;6334444;22;45615;-95
2022/06/13 02:39:29;;;;;;;;;2.67;2.00;;;;;16.66;96.31;100785.88;6333943;22;46021;-95
2022/06/13 02:42:04;;;;;;;;;2.00;1.00;;;;;16.65;96.40;100790.28;6306142;22;45341;-95
2022/06/13 02:44:37;;;;;;;;;2.33;2.33;;;;;16.61;97.06;100786.69;6323698;22;45326;-96
2022/06/13 02:47:11;;;;;;;;;3.33;3.33;;;;;16.58;96.86;100789.28;6307335;22;45244;-94
2022/06/13 02:49:43;;;;;;;;;4.67;2.33;;;;;16.53;96.82;100785.63;6334819;22;45270;-96
2022/06/13 02:52:42;;;;;;;;;3.00;2.33;;;;;16.53;97.19;100785.63;6306975;22;45341;-95
2022/06/13 02:55:12;;;;;;;;;2.00;2.00;;;;;16.46;97.48;100776.66;6316445;22;45240;-94
2022/06/13 02:58:04;;;;;;;;;2.00;2.00;;;;;16.44;97.57;100777.50;6334661;22;45253;-95
2022/06/13 03:00:58;;;;;;;;;3.33;3.00;;;;;16.39;97.79;100782.69;6334392;22;45359;-95
2022/06/13 03:03:39;;;;;;;;;2.33;2.33;;;;;16.37;98.04;100784.41;6336331;22;45256;-94
2022/06/13 03:06:31;;;;;;;;;4.00;3.00;;;;;16.30;98.11;100776.34;6334501;22;45348;-94
2022/06/13 03:09:02;;;;;;;;;5.00;5.00;;;;;16.28;98.13;100790.41;6308800;22;45476;-95
2022/06/13 03:11:49;;;;;;;;;3.67;2.33;;;;;16.23;98.86;100779.72;6306169;22;46091;-94
2022/06/13 03:14:33;;;;;;;;;5.67;3.00;;;;;16.19;99.16;100775.19;6334692;22;45262;-95
2022/06/13 03:17:12;;;;;;;;;3.00;3.00;;;;;16.12;99.41;100781.22;6335523;22;45411;-94
2022/06/13 03:19:46;;;;;;;;;3.00;3.00;;;;;16.09;99.53;100774.09;6306753;22;45387;-95
2022/06/13 03:22:21;;;;;;;;;8.33;5.00;;;;;16.08;99.71;100777.63;6335544;22;45382;-95
2022/06/13 03:25:07;;;;;;;;;4.00;2.00;;;;;16.05;99.78;100789.03;6335750;22;45320;-95
2022/06/13 03:27:39;;;;;;;;;5.33;3.00;;;;;16.01;100.00;100779.16;6340127;22;45218;-95
2022/06/13 03:30:04;;;;;;;;;3.00;2.00;;;;;15.97;100.00;100783.50;6311939;22;45336;-95
2022/06/13 03:32:37;;;;;;;;;4.67;3.33;;;;;15.93;100.00;100784.28;6339985;22;45526;-94
2022/06/13 03:35:08;;;;;;;;;3.00;3.00;;;;;15.90;100.00;100770.97;6339138;22;45330;-93
2022/06/13 03:37:41;;;;;;;;;3.00;2.00;;;;;15.86;100.00;100775.31;6311503;22;45318;-94
2022/06/13 03:40:13;;;;;;;;;3.00;3.00;;;;;15.85;100.00;100778.81;6340616;22;45387;-96
2022/06/13 03:42:46;;;;;;;;;3.00;2.00;;;;;15.84;100.00;100779.69;6340354;22;47225;-95
2022/06/13 03:45:20;;;;;;;;;6.00;3.00;;;;;15.83;100.00;100784.91;6313024;22;45207;-95
2022/06/13 03:47:48;;;;;;;;;3.67;3.67;;;;;15.80;100.00;100785.72;6337858;22;45216;-95
2022/06/13 03:50:29;;;;;;;;;3.00;3.00;;;;;15.77;100.00;100767.13;6338969;22;45656;-95
2022/06/13 03:53:04;;;;;;;;;2.00;2.00;;;;;15.79;100.00;100778.69;6306225;22;47006;-96
2022/06/13 03:55:44;;;;;;;;;2.67;2.67;;;;;15.78;100.00;100771.56;6335241;22;45235;-96
2022/06/13 03:58:19;;;;;;;;;3.00;3.00;;;;;15.75;100.00;100772.41;6335068;22;45333;-96
2022/06/13 04:00:52;;;;;;;;;4.00;3.00;;;;;15.75;100.00;100768.84;6332919;22;45464;-95
2022/06/13 04:03:18;;;;;;;;;2.00;2.00;;;;;15.73;100.00;100767.94;6334523;22;45613;-95
2022/06/13 04:06:00;;;;;;;;;4.00;4.00;;;;;15.73;100.00;100773.22;6334207;22;45295;-95
2022/06/13 04:08:29;;;;;;;;;3.67;3.67;;;;;15.72;100.00;100761.72;6334866;22;45302;-95
2022/06/13 04:11:09;;;;;;;;;4.33;4.33;;;;;15.73;100.00;100763.53;6334574;22;45296;-95
2022/06/13 04:13:57;;;;;;;;;3.33;3.33;;;;;15.73;100.00;100759.97;6307294;22;47395;-96
2022/06/13 04:16:51;;;;;;;;;5.67;4.00;;;;;15.72;100.00;100764.38;6312036;22;45298;-95
2022/06/13 04:19:44;;;;;;;;;3.67;3.67;;;;;15.78;100.00;100773.31;6238472;22;45320;-96
2022/06/13 04:22:28;;;;;;;;;3.00;3.00;;;;;15.78;100.00;100761.00;6220040;22;45360;-95
2022/06/13 04:25:21;;;;;;;;;3.00;3.00;;;;;15.80;100.00;100769.84;6211563;22;47052;-95
2022/06/13 04:27:53;;;;;;;;;4.33;3.00;;;;;15.80;100.00;100761.91;6212342;22;45317;-94
2022/06/13 04:30:24;;;;;;;;;3.33;3.00;;;;;15.83;100.00;100769.03;6237728;22;45368;-95
2022/06/13 04:33:00;;;;;;;;;4.00;3.00;;;;;15.86;100.00;100770.03;6211981;22;45547;-95
2022/06/13 04:35:30;;;;;;;;;5.67;4.33;;;;;15.89;100.00;100765.66;6238277;22;46123;-95
2022/06/13 04:37:57;;;;;;;;;4.67;4.00;;;;;15.92;100.00;100763.09;6211079;22;45540;-95
2022/06/13 04:40:26;;;;;;;;;7.00;4.00;;;;;15.93;100.00;100755.16;6212668;22;45249;-95
2022/06/13 04:42:55;;;;;;;;;3.67;3.67;;;;;15.98;100.00;100757.91;6238100;22;45389;-95
2022/06/13 04:45:31;;;;;;;;;4.67;2.67;;;;;16.00;100.00;100764.16;6238183;22;45690;-95
2022/06/13 04:47:57;;;;;;;;;5.00;2.00;;;;;16.06;100.00;100760.78;6238812;22;45311;-95
2022/06/13 04:50:34;;;;;;;;;4.00;4.00;;;;;16.12;100.00;100767.97;6212795;22;45376;-96
2022/06/13 04:53:04;;;;;;;;;6.00;4.33;;;;;16.15;100.00;100762.75;6242237;22;45358;-95
2022/06/13 04:55:41;;;;;;;;;6.00;3.67;;;;;16.17;100.00;100764.56;6263132;22;45920;-95
2022/06/13 04:58:43;;;;;;;;;4.00;2.67;;;;;16.25;100.00;100759.44;6343910;22;45316;-96
2022/06/13 05:01:28;;;;;;;;;4.00;3.00;;;;;16.31;100.00;100774.59;6340508;22;45290;-94
2022/06/13 05:03:57;;;;;;;;;4.00;3.00;;;;;16.32;100.00;100771.06;6311616;22;45366;-96
2022/06/13 05:06:37;;;;;;;;;3.00;3.00;;;;;16.38;100.00;100757.06;6338420;22;45456;-96
2022/06/13 05:09:27;;;;;;;;;3.00;3.00;;;;;16.45;100.00;100771.31;6306831;22;45293;-96
2022/06/13 05:12:09;;;;;;;;;2.00;2.00;;;;;16.50;100.00;100770.56;6334721;22;45370;-96
2022/06/13 05:14:50;;;;;;;;;3.33;2.33;;;;;16.59;100.00;100775.19;6334722;22;45321;-95
2022/06/13 05:17:19;;;;;;;;;5.00;3.00;;;;;16.67;100.00;100771.78;6306548;22;46822;-95
2022/06/13 05:19:47;;;;;;;;;3.67;3.67;;;;;16.73;100.00;100764.84;6306262;22;45396;-96
2022/06/13 05:22:50;;;;;;;;;3.67;3.00;;;;;16.84;100.00;100766.81;6335397;22;45281;-96
2022/06/13 05:25:37;;;;;;;;;7.00;5.67;;;;;16.93;100.00;100769.63;6306756;22;45316;-95
2022/06/13 05:28:03;;;;;;;;;6.00;3.33;;;;;17.00;100.00;100772.41;6305986;22;47085;-95
2022/06/13 05:30:29;;;;;;;;;7.00;3.00;;;;;17.04;100.00;100774.25;6334229;22;45238;-95
2022/06/13 05:32:55;;;;;;;;;8.33;7.00;;;;;17.15;100.00;100778.00;6336681;22;45261;-95
2022/06/13 05:35:25;;;;;;;;;4.67;4.00;;;;;17.25;100.00;100780.84;6308311;22;45343;-94
2022/06/13 05:37:54;;;;;;;;;4.67;2.00;;;;;17.32;100.00;100774.78;6338511;22;46319;-95
2022/06/13 05:40:21;;;;;;;;;5.00;5.00;;;;;17.40;100.00;100778.47;6337279;22;45367;-95
2022/06/13 05:42:47;;;;;;;;;5.00;3.00;;;;;17.46;100.00;100783.00;6333126;22;45343;-94
2022/06/13 05:45:18;;;;;;;;;4.33;4.33;;;;;17.56;100.00;100784.06;6333984;22;45314;-94
2022/06/13 05:47:46;;;;;;;;;5.33;4.00;;;;;17.63;100.00;100787.69;6333448;22;47227;-94
2022/06/13 05:50:20;;;;;;;;;7.67;4.33;;;;;17.72;100.00;100794.94;6334229;22;45248;-94
2022/06/13 05:52:45;;;;;;;;;5.67;4.00;;;;;17.78;100.00;100792.34;6334368;22;45267;-94
2022/06/13 05:55:11;;;;;;;;;4.00;4.00;;;;;17.83;100.00;100788.00;6332626;22;45469;-94
2022/06/13 05:57:38;;;;;;;;;6.67;3.33;;;;;17.92;100.00;100783.72;6334706;22;46563;-95
2022/06/13 06:00:07;;;;;;;;;3.33;3.00;;;;;18.00;100.00;100791.81;6305863;22;45254;-95
2022/06/13 06:02:32;;;;;;;;;4.33;4.00;;;;;18.06;100.00;100797.22;6335638;22;45298;-94
2022/06/13 06:04:57;;;;;;;;;6.00;4.00;;;;;18.14;100.00;100792.91;6335232;22;45282;-95
2022/06/13 06:07:22;;;;;;;;;4.00;2.00;;;;;18.24;100.00;100801.06;6334311;22;58088;-94
2022/06/13 06:09:48;;;;;;;;;4.00;3.33;;;;;18.29;100.00;100802.03;6333668;22;45290;-96
2022/06/13 06:12:14;;;;;;;;;2.67;2.67;;;;;18.39;100.00;100808.34;6308395;22;45216;-95
2022/06/13 06:14:39;;;;;;;;;3.67;3.00;;;;;18.46;100.00;100806.66;6334967;22;45264;-94
2022/06/13 06:17:05;;;;;;;;;4.67;3.00;;;;;18.54;100.00;100805.91;6336832;22;46217;-96
2022/06/13 06:19:30;;;;;;;;;6.00;4.00;;;;;18.60;100.00;100806.84;6313979;22;45250;-95
2022/06/13 06:21:55;;;;;;;;;4.00;2.00;;;;;18.66;100.00;100809.56;6309797;22;45324;-96
2022/06/13 06:24:20;;;;;;;;;6.00;4.00;;;;;18.75;100.00;100836.28;6336338;22;45359;-96
2022/06/13 06:26:46;;;;;;;;;6.00;4.33;;;;;18.78;100.00;100819.50;6335724;22;55296;-95
2022/06/13 06:29:11;;;;;;;;;5.00;4.33;;;;;18.85;100.00;100820.44;6334635;22;45163;-94
2022/06/13 06:31:37;;;;;;;;;4.33;3.67;;;;;18.90;100.00;100809.84;6335640;22;45272;-94
2022/06/13 06:34:02;;;;;;;;;2.33;2.33;;;;;18.99;100.00;100818.81;6334607;22;45182;-93
2022/06/13 06:36:29;;;;;;;;;7.33;5.00;;;;;19.06;100.00;100819.81;6334787;22;45251;-93
2022/06/13 06:38:54;;;;;;;;;7.33;4.00;;;;;19.15;100.00;100826.09;6335859;22;45551;-95
2022/06/13 06:41:20;;;;;;;;;3.67;3.67;;;;;19.23;100.00;100827.09;6334880;22;45323;-96
2022/06/13 06:43:45;;;;;;;;;6.33;4.33;;;;;19.29;100.00;100837.81;6335523;22;45321;-96
2022/06/13 06:46:12;;;;;;;;;6.33;3.00;;;;;19.38;100.00;100831.69;6332938;22;51296;-96
2022/06/13 06:48:37;;;;;;;;;4.67;4.00;;;;;19.43;100.00;100831.75;6332840;22;45340;-95
2022/06/13 06:51:06;;;;;;;;;4.00;4.00;;;;;19.49;100.00;100837.13;6335402;22;45642;-94
2022/06/13 06:59:53;;;;;;;;;3.00;3.00;;;;;19.56;100.00;100848.72;6312547;22;45199;-94
2022/06/13 07:01:45;;;;;;;;;6.33;4.00;;;;;19.77;100.00;100864.00;6332499;22;45504;-96
2022/06/13 07:04:10;;;;;;;;;4.00;4.00;;;;;19.80;100.00;100873.78;6334227;22;45206;-95
2022/06/13 07:06:35;;;;;;;;;5.33;4.00;;;;;19.85;100.00;100876.50;6315833;22;47498;-95
2022/06/13 07:09:01;;;;;;;;;4.00;3.67;;;;;19.87;100.00;100872.97;6348583;22;56168;-95
2022/06/13 07:14:10;;;;;;;;;7.33;5.00;;;;;20.05;100.00;100866.00;6350838;22;45391;-95
2022/06/13 07:16:35;;;;;;;;;3.33;3.33;;;;;20.15;100.00;100863.47;6320756;22;48302;-96
2022/06/13 07:19:01;;;;;;;;;5.67;5.00;;;;;20.26;100.00;100874.16;6349252;22;53857;-95
2022/06/13 07:21:26;;;;;;;;;5.00;3.33;;;;;20.32;100.00;100898.22;6322810;22;45307;-93
2022/06/13 07:23:51;;;;;;;;;6.00;3.67;;;;;20.41;100.00;100898.25;6348915;22;45283;-93
2022/06/13 07:26:17;;;;;;;;;6.67;3.00;;;;;20.49;100.00;100908.09;6347321;22;47072;-94
2022/06/13 07:28:42;;;;;;;;;2.67;2.67;;;;;20.60;100.00;100908.16;6349768;22;58116;-94
2022/06/13 07:31:17;;;;;;;;;2.33;2.33;;;;;20.71;100.00;100922.47;6324848;22;44653;-94
2022/06/13 07:33:43;;;;;;;;;8.67;4.00;;;;;20.77;100.00;100934.94;6324036;22;44674;-96
2022/06/13 07:36:10;;;;;;;;;3.00;3.00;;;;;20.81;100.00;100927.84;6353262;22;45173;-95
2022/06/13 07:38:35;;;;;;;;;6.00;3.00;;;;;20.87;100.00;100936.75;6349516;22;44741;-95
2022/06/13 07:41:01;;;;;;;;;3.00;3.00;;;;;20.95;100.00;100959.94;6323058;22;45387;-96
2022/06/13 07:43:30;;;;;;;;;3.67;3.67;;;;;20.98;100.00;100974.19;6349488;22;45284;-94
2022/06/13 07:45:57;;;;;;;;;3.00;3.00;;;;;21.01;100.00;100972.41;6315514;22;46606;-93
2022/06/13 07:48:23;;;;;;;;;5.33;3.67;;;;;21.05;100.00;100991.16;6347423;22;44863;-94
2022/06/13 07:50:50;;;;;;;;;4.33;4.00;;;;;21.12;99.85;101016.09;6324211;22;44684;-90
2022/06/13 07:53:17;;;;;;;;;4.67;4.00;;;;;21.14;99.92;100989.41;6323203;22;45480;-96
2022/06/13 07:55:43;;;;;;;;;4.33;4.00;;;;;21.19;100.00;100985.88;6324073;22;46321;-95
2022/06/13 07:58:21;;;;;;;;;4.00;3.00;;;;;21.44;99.62;101017.16;6296025;22;44668;-94
2022/06/13 08:00:49;;;;;;;;;8.33;2.33;;;;;21.50;99.62;101011.81;6321091;22;45323;-95
2022/06/13 08:03:25;;;;;;;;;4.00;3.00;;;;;21.60;99.18;101017.19;6321738;22;45408;-94
2022/06/13 08:05:52;;;;;;;;;3.67;2.33;;;;;21.70;99.42;101004.78;6325178;22;47473;-92
2022/06/13 08:08:18;;;;;;;;;6.67;3.00;;;;;21.80;99.16;101021.72;6331775;22;44783;-96
2022/06/13 08:10:44;;;;;;;;;3.00;2.00;;;;;21.94;98.74;101040.47;6354754;22;44731;-95
2022/06/13 08:13:14;;;;;;;;;3.00;0.00;;;;;22.03;97.87;101052.97;6324833;22;45229;-96
2022/06/13 08:15:40;;;;;;;;;2.67;2.67;;;;;22.14;96.89;101083.28;6322338;22;47102;-94
2022/06/13 08:18:05;;;;;;;;;4.00;4.00;;;;;22.24;92.63;101180.44;6323755;22;45217;-96
2022/06/13 08:20:32;;;;;;;;;3.33;2.67;;;;;22.28;94.77;101126.09;6352300;22;45525;-96
2022/06/13 08:22:59;;;;;;;;;2.67;2.33;;;;;22.33;94.51;101121.66;6352647;22;45576;-96
2022/06/13 08:25:28;;;;;;;;;2.33;2.33;;;;;22.42;95.29;101119.91;6319851;22;46137;-96
2022/06/13 08:27:58;;;;;;;;;2.00;2.00;;;;;22.49;93.53;101143.09;6325568;22;44841;-96
2022/06/13 08:30:45;;;;;;;;;3.00;3.00;;;;;22.57;94.21;101135.09;6321601;22;45376;-96
2022/06/13 08:33:11;;;;;;;;;4.00;2.00;;;;;22.66;92.67;101164.50;6327806;22;44867;-96
2022/06/13 08:35:38;;;;;;;;;2.67;2.67;;;;;22.74;93.04;101169.91;6350713;22;46258;-95
2022/06/13 08:38:04;;;;;;;;;2.67;2.67;;;;;22.87;93.38;101162.78;6326816;22;45198;-96
2022/06/13 08:40:54;;;;;;;;;3.67;2.00;;;;;23.04;92.38;101185.09;6327661;22;45436;-94
2022/06/13 08:43:57;;;;;;;;;3.00;3.00;;;;;23.22;91.93;101202.91;6226322;22;45319;-96
2022/06/13 08:46:41;;;;;;;;;5.00;3.67;;;;;23.28;90.24;101248.44;6231629;22;45129;-96
2022/06/13 08:49:23;;;;;;;;;2.67;1.00;;;;;23.37;89.74;101244.00;6227336;22;45501;-96
2022/06/13 08:52:12;;;;;;;;;2.00;2.00;;;;;23.46;89.63;101240.41;6225232;22;44626;-93
2022/06/13 08:54:42;;;;;;;;;3.33;2.00;;;;;23.58;89.62;101251.13;6224069;22;44829;-96
2022/06/13 08:57:11;;;;;;;;;2.67;1.00;;;;;23.62;88.59;101290.44;6202047;22;45386;-93
2022/06/13 08:59:51;;;;;;;;;2.00;2.00;;;;;23.70;88.37;101289.53;6198283;22;45698;-96
2022/06/13 09:02:25;;;;;;;;;0.00;0.00;;;;;23.75;86.80;101352.06;6223080;22;45557;-96
2022/06/13 09:04:54;;;;;;;;;3.00;3.00;;;;;23.80;85.62;101352.97;6196245;22;45637;-96
2022/06/13 09:07:35;;;;;;;;;4.67;2.00;;;;;23.83;86.82;101346.72;6221771;22;45434;-94
2022/06/13 09:10:18;;;;;;;;;2.00;2.00;;;;;23.92;86.85;101329.69;6220857;22;45627;-95
2022/06/13 09:13:00;;;;;;;;;1.67;1.67;;;;;24.05;86.65;101327.91;6222803;22;45291;-95
2022/06/13 09:15:35;;;;;;;;;1.67;1.67;;;;;24.23;85.08;101385.97;6200163;22;45280;-96
2022/06/13 09:18:14;;;;;;;;;2.00;2.00;;;;;24.37;85.35;101495.97;6200910;22;48503;-96
2022/06/13 09:21:24;;;;;;;;;5.33;4.00;;;;;24.54;85.17;101564.81;6300617;22;44637;-95
2022/06/13 09:24:08;;;;;;;;;4.00;2.67;;;;;24.73;84.55;101587.19;6223938;22;45216;-91
2022/06/13 09:26:40;;;;;;;;;4.00;3.00;;;;;24.80;83.45;101681.13;6224497;22;45169;-95
2022/06/13 09:29:17;;;;;;;;;4.00;3.00;;;;;24.68;84.01;101693.66;6264093;22;45241;-94
2022/06/13 09:31:50;;;;;;;;;3.00;1.67;;;;;24.88;82.96;101754.53;6299528;22;45328;-96
2022/06/13 09:34:33;;;;;;;;;3.33;2.33;;;;;25.13;83.65;101754.56;6310034;22;45272;-95
2022/06/13 09:37:12;;;;;;;;;0.00;0.00;;;;;25.36;83.08;101788.59;6310727;22;45368;-95
2022/06/13 09:39:38;;;;;;;;;2.00;2.00;;;;;25.44;82.56;101810.09;6310213;22;48224;-95
2022/06/13 09:42:10;;;;;;;;;3.00;2.00;;;;;25.54;82.19;101825.31;6313609;22;45253;-94
2022/06/13 09:45:13;;;;;;;;;0.67;0.67;;;;;25.64;80.31;101879.09;6313632;22;45796;-94
2022/06/13 09:47:56;;;;;;;;;3.33;2.00;;;;;25.66;77.61;101939.13;6321897;22;44835;-96
2022/06/13 09:50:27;;;;;;;;;3.00;1.00;;;;;25.83;78.81;101941.84;6343645;22;46157;-94
2022/06/13 09:53:02;;;;;;;;;1.67;1.67;;;;;26.29;78.12;101947.19;6314622;22;44700;-96
2022/06/13 09:55:48;;;;;;;;;2.33;1.33;;;;;28.26;80.89;101912.84;6315268;22;45249;-95
2022/06/13 09:58:31;;;;;;;;;2.00;2.00;;;;;30.87;79.25;101957.50;6315611;22;45304;-96
2022/06/13 10:01:08;;;;;;;;;1.33;1.33;;;;;33.14;77.83;102002.50;6314062;22;45385;-95
2022/06/13 10:04:04;;;;;;;;;2.33;1.33;;;;;35.36;73.69;102057.59;6314009;22;45827;-96
2022/06/13 10:06:32;;;;;;;;;0.00;0.00;;;;;37.12;62.44;102111.25;6318095;22;45300;-94
2022/06/13 10:09:14;;;;;;;;;2.00;2.00;;;;;38.39;63.90;102107.00;6315466;22;45248;-96
2022/06/13 10:11:42;;;;;;;;;3.67;1.00;;;;;40.06;63.14;102105.19;6318552;22;45221;-96
2022/06/13 10:14:39;;;;;;;;;1.67;1.00;;;;;41.73;59.44;102114.13;6319112;22;44758;-95
2022/06/13 10:17:15;;;;;;;;;1.33;0.67;;;;;43.28;57.63;102114.44;6312718;22;45188;-96
2022/06/13 10:19:59;;;;;;;;;1.00;1.00;;;;;44.45;53.69;102120.47;6310830;22;45270;-94
2022/06/13 10:22:48;;;;;;;;;3.00;0.33;;;;;45.37;52.67;102119.59;6303976;22;47261;-93
2022/06/13 10:25:28;;;;;;;;;2.00;2.00;;;;;46.54;48.64;102134.69;6305319;22;45415;-94
2022/06/13 10:28:37;;;;;;;;;1.67;1.00;;;;;47.70;44.16;102137.31;6315090;22;45362;-96
2022/06/13 10:31:24;;;;;;;;;1.00;1.00;;;;;48.69;46.61;102121.53;6265473;22;45331;-92
2022/06/13 10:34:24;;;;;;;;;2.00;1.67;;;;;49.51;44.47;102132.00;6265227;22;47545;-88
2022/06/13 10:37:39;;;;;;;;;1.00;1.00;;;;;50.26;42.97;102130.97;6297558;22;44849;-90
2022/06/13 10:40:13;;;;;;;;;1.67;1.67;;;;;50.95;41.30;102121.75;6271954;22;44682;-91
2022/06/13 10:42:46;;;;;;;;;1.67;1.00;;;;;51.62;40.07;102119.16;6272203;22;44855;-89
2022/06/13 10:45:15;;;;;;;;;1.67;0.67;;;;;52.26;40.43;102125.13;6271741;22;45376;-92
2022/06/13 10:47:41;;;;;;;;;1.00;1.00;;;;;51.87;37.86;102135.13;6273724;22;44882;-90
2022/06/13 10:50:30;;;;;;;;;1.00;1.00;;;;;49.89;37.25;102122.63;6273761;22;44723;-91
2022/06/13 10:58:47;;;;;;;;;2.00;2.00;;;;;51.84;36.54;102127.94;6317519;22;46059;-90
2022/06/13 11:01:22;;;;;;;;;3.00;2.00;;;;;52.63;36.71;102116.28;6390007;22;44614;-91
2022/06/13 11:04:17;;;;;;;;;1.33;1.33;;;;;53.44;35.67;102125.53;6310641;22;44757;-95
2022/06/13 11:06:47;;;;;;;;;0.00;0.00;;;;;53.87;34.69;102110.09;6335708;22;46749;-94
2022/06/13 11:56:22;;;;;;;;;2.00;2.00;;;;;59.32;27.28;102105.31;6236904;22;45461;-96
2022/06/13 11:58:50;;;;;;;;;1.33;1.00;;;;;59.39;26.50;102105.25;6242629;22;48136;-96
2022/06/13 12:01:22;;;;;;;;;0.00;0.00;;;;;59.42;25.96;102103.94;6221541;22;45204;-96
2022/06/13 12:04:17;;;;;;;;;2.67;1.00;;;;;59.51;26.73;102093.22;6243201;22;45353;-96
2022/06/13 12:06:50;;;;;;;;;2.00;2.00;;;;;59.71;26.36;102090.22;6213933;22;45642;-96
2022/06/13 12:09:34;;;;;;;;;1.33;1.33;;;;;59.93;25.64;102103.94;6246983;22;46491;-96
2022/06/13 12:12:06;;;;;;;;;0.00;0.00;;;;;60.05;26.31;102091.88;6216442;22;45342;-96
2022/06/13 12:14:40;;;;;;;;;0.00;0.00;;;;;60.30;25.79;102088.94;6241969;22;45328;-95
2022/06/13 12:17:10;;;;;;;;;1.00;1.00;;;;;60.47;25.05;102096.81;6247508;22;45327;-95
2022/06/13 12:20:19;;;;;;;;;0.67;0.67;;;;;60.58;25.06;102086.63;6227165;22;46159;-96
2022/06/13 12:22:53;;;;;;;;;1.00;0.00;;;;;60.72;25.08;102086.47;6154334;23;45210;-96
2022/06/13 12:25:26;;;;;;;;;0.67;0.00;;;;;60.94;24.72;102083.09;6158245;23;45681;-96
2022/06/13 12:27:57;;;;;;;;;1.00;1.00;;;;;61.11;24.77;102077.63;6150030;23;45379;-96
2022/06/13 12:30:47;;;;;;;;;2.00;1.00;;;;;61.33;24.69;102080.75;6147635;23;47229;-96
2022/06/13 12:33:27;;;;;;;;;2.00;0.67;;;;;61.56;24.13;102073.38;6213084;22;45291;-96
2022/06/13 12:36:08;;;;;;;;;0.00;0.00;;;;;61.71;24.37;102069.16;6213873;22;45335;-96
2022/06/13 12:38:36;;;;;;;;;1.00;1.00;;;;;61.87;23.99;102064.75;6212312;22;45182;-96
2022/06/13 12:41:17;;;;;;;;;1.00;1.00;;;;;61.96;24.24;102078.56;6183130;22;47024;-96
2022/06/13 12:44:06;;;;;;;;;0.00;0.00;;;;;62.09;23.96;102066.06;6182806;22;44784;-95
2022/06/13 12:46:55;;;;;;;;;1.33;1.00;;;;;62.28;24.06;102071.56;6206698;22;45405;-96
2022/06/13 12:49:33;;;;;;;;;1.67;0.00;;;;;62.64;22.94;102066.63;6186632;22;45402;-95
2022/06/13 12:52:24;;;;;;;;;0.00;0.00;;;;;62.99;23.28;102067.56;6184097;22;46054;-96
2022/06/13 12:55:04;;;;;;;;;0.67;0.67;;;;;63.48;23.14;102058.69;6336609;22;45350;-95
2022/06/13 12:57:36;;;;;;;;;1.00;1.00;;;;;64.28;23.08;102063.22;6313050;22;45269;-96
2022/06/13 13:00:21;;;;;;;;;0.33;0.33;;;;;65.28;23.38;102062.19;6322327;22;44773;-95
2022/06/13 13:02:49;;;;;;;;;2.00;1.00;;;;;66.36;22.85;102059.31;6314902;22;47340;-96
2022/06/13 13:05:46;;;;;;;;;1.33;1.33;;;;;67.28;22.74;102058.78;6338851;22;45250;-96
2022/06/13 13:08:41;;;;;;;;;0.33;0.33;;;;;68.25;22.19;102062.72;6244060;22;45764;-94
2022/06/13 13:11:28;;;;;;;;;2.33;1.00;;;;;68.77;21.74;102066.38;6241618;22;45755;-96
2022/06/13 13:14:17;;;;;;;;;1.00;1.00;;;;;69.04;20.75;102059.25;6270173;22;46351;-95
2022/06/13 13:17:06;;;;;;;;;1.00;1.00;;;;;69.12;21.20;102051.97;6267405;22;45382;-94
2022/06/13 13:19:46;;;;;;;;;1.00;1.00;;;;;68.88;21.11;102050.75;6269170;22;45316;-96
2022/06/13 13:22:17;;;;;;;;;1.00;1.00;;;;;68.77;20.94;102050.00;6249939;22;45440;-96
2022/06/13 13:25:11;;;;;;;;;1.00;1.00;;;;;68.41;20.99;102040.53;6268396;22;46732;-95
2022/06/13 13:27:52;;;;;;;;;0.00;0.00;;;;;68.07;20.88;102039.28;6206759;22;45457;-96
2022/06/13 13:30:29;;;;;;;;;1.00;1.00;;;;;67.76;20.70;102036.59;6213113;22;45359;-95
2022/06/13 13:33:01;;;;;;;;;3.00;1.00;;;;;67.43;20.52;102039.84;6191143;22;44802;-95
2022/06/13 13:35:32;;;;;;;;;0.00;0.00;;;;;67.17;21.05;102031.31;6205899;22;45806;-95
2022/06/13 13:38:03;;;;;;;;;1.00;1.00;;;;;66.96;21.12;102028.47;6218102;22;45283;-96
2022/06/13 13:40:54;;;;;;;;;1.00;0.00;;;;;66.57;20.68;102025.03;6214500;22;45338;-95
2022/06/13 13:43:35;;;;;;;;;2.00;2.00;;;;;66.41;20.88;102021.28;6209133;22;45300;-96
2022/06/13 13:46:05;;;;;;;;;1.00;1.00;;;;;65.78;19.87;102024.78;6211824;22;45472;-96
2022/06/13 13:48:45;;;;;;;;;2.00;0.00;;;;;65.47;21.45;102012.38;6211001;22;45310;-94